x

Grays Reef - 40 Nm Southeast Of Savannah, Ga (41008) Wave Buoy

11:50pm - Mon 25th Jul 2016 All times are EDT. -4 hours from GMT.

  • Sig Wave height 2.6ft
  • Swell Direction
  • Peak Period 4s
  • Average Period 4s
  • Wind
    16mph, 18mph gusts
  • Sea Temp 86°f
  • Air Temp 85°f
  • Sea Pressure 1017.8mb
  • Grays Reef - 40 Nm Southeast Of Savannah, Ga
  • Grays Reef - 40 Nm Southeast Of Savannah, Ga

More Historic Weather Station data

Upgrade to MSW Pro to gain access to the past 30 days of data for over 8000 Wavebouys and Weather Stations around the globe.

Join Pro

Comparision Forecast

View Surf forecast
   
Mon 07/25 11:50pm 2.5ft 4s 4s 16 18 mph 1017.8mb 86f 85f
10:50pm 2.5ft 4s 4s 16 20 mph 1017.8mb 87f 85f
9:50pm 2.5ft 3s 4s 16 20 mph 1017.3mb 87f 85f
8:50pm 1.6ft 8s 4s 18 20 mph 1016.8mb 87f 85f
7:50pm 1.6ft 8s 4s 13 16 mph 1016.8mb 87f 85f
6:50pm 1.6ft 9s 4s 13 16 mph 1016.8mb 87f 85f
5:50pm 1.6ft 9s 5s 11 13 mph 1017mb 88f 85f
4:50pm 1.3ft 10s 5s 9 11 mph 1017.5mb 88f 85f
3:50pm 1.3ft 9s 5s 9 11 mph 1017.6mb 88f 84f
1:50pm 1.6ft 9s 4s 7 9 mph 1018.3mb 87f 84f
12:50pm 2ft 8s 5s 4 7 mph 1019mb 87f 84f
11:50am 2ft 8s 4s 7 9 mph 1019.1mb 87f 84f
10:50am 2ft 8s 4s 4 7 mph 1019.1mb 86f 84f
9:50am 2.5ft 4s 4s 7 9 mph 1019mb 86f 84f
8:50am 2.5ft 4s 4s 7 11 mph 1018.8mb 86f 84f
7:50am 2.5ft 8s 4s 9 11 mph 1018.5mb 86f 84f
6:50am 2.5ft 5s 4s 11 16 mph 1017.9mb 86f 84f
5:50am 2.5ft 5s 4s 13 16 mph 1017mb 86f 84f
4:50am 3ft 4s 4s 13 18 mph 1016.6mb 86f 85f
3:50am 2.5ft 4s 4s 16 18 mph 1016.9mb 86f 84f
2:50am 3ft 4s 4s 16 18 mph 1017mb 86f 85f
1:50am 3ft 4s 4s 18 20 mph 1017.5mb 86f 85f
12:50am 2.5ft 9s 4s 18 20 mph 1017.7mb 86f 85f
Sun 07/24 11:50pm 2.5ft 8s 4s 18 20 mph 1017.6mb 86f 85f
10:50pm 2.5ft 9s 4s 16 18 mph 1017.4mb 86f 85f
9:50pm 2.5ft 8s 4s 16 18 mph 1016.9mb 87f 86f
8:50pm 2.5ft 8s 4s 13 16 mph 1017mb 87f 85f
7:50pm 2.5ft 8s 4s 16 18 mph 1016.4mb 87f 85f
6:50pm 2ft 8s 4s 16
mph
1016.4mb 87f 85f
5:50pm 2ft 9s 5s 11 13 mph 1016.4mb 88f 85f
4:50pm 1.6ft 8s 4s 11 13 mph 1016.6mb 88f 85f
3:50pm 1.6ft 9s 5s 11
mph
1017.1mb 87f 85f
2:50pm 2ft 9s 5s 7 9 mph 1017.3mb 87f 85f
1:50pm 2.5ft 9s 5s 7 9 mph 1017.5mb 87f 85f
12:50pm 2ft 9s 4s 9 11 mph 1017.4mb 86f 84f
11:50am 2.5ft 9s 4s 9 11 mph 1017.7mb 86f 84f
10:50am 2.5ft 9s 4s 13 16 mph 1017.6mb 86f 84f
9:50am 2.5ft 4s 4s 13 16 mph 1017.5mb 86f 84f
8:50am 2.5ft 8s 4s 13 16 mph 1017.3mb 86f 84f
7:50am 2.5ft 8s 4s 11 13 mph 1016.8mb 86f 84f
6:50am 2.5ft 8s 4s 11 13 mph 1016.4mb 86f 85f
5:50am 2.5ft 4s 4s 13 16 mph 1016.1mb 86f 85f
4:50am 2.5ft 4s 4s 13 16 mph 1015.7mb 86f 84f
3:50am 2.5ft 9s 4s 13 16 mph 1016.1mb 86f 85f
2:50am 2.5ft 4s 4s 13 16 mph 1016.2mb 86f 85f
1:50am 2.5ft 10s 4s 16 18 mph 1016.8mb 86f 85f
12:50am 2.5ft 9s 4s 18 20 mph 1016.3mb 86f 85f
Sat 07/23 11:50pm 2.5ft 9s 4s 13 16 mph 1016.3mb 86f 85f
10:50pm 2ft 8s 4s 13 16 mph 1016.3mb 87f 85f
9:50pm 2.5ft 8s 4s 13 16 mph 1015.8mb 87f 85f
8:50pm 2.5ft 8s 4s 13 16 mph 1015.2mb 87f 85f
7:50pm 2ft 8s 5s 13 16 mph 1014.9mb 87f 85f
6:50pm 2ft 9s 5s 13 16 mph 1015.2mb 88f 86f
5:50pm 2ft 8s 5s 13 16 mph 1015.3mb 88f 85f
4:50pm 1.6ft 8s 5s 11 13 mph 1015.6mb 88f 85f
3:50pm 2ft 8s 7s 9 11 mph 1016.1mb 88f 85f
2:50pm 2ft 9s 7s 11 13 mph 1016.4mb 88f 85f
1:50pm 1.6ft 9s 6s 9 11 mph 1017mb 87f 84f
12:50pm 2ft 9s 6s 7 9 mph 1017.3mb 87f 85f
11:50am 2ft 9s 6s 9 11 mph 1017.5mb 87f 84f
10:50am 2ft 9s 5s 9 11 mph 1017.6mb 86f 83f
9:50am 2.5ft 8s 6s 9 11 mph 1017mb 86f 83f
8:50am 2ft 8s 5s 7 11 mph 1016.8mb 86f 83f
7:50am 2.5ft 9s 6s 9 11 mph 1016.7mb 86f 84f
6:50am 2.5ft 9s 5s 7 9 mph 1016.5mb 86f 83f
5:50am 2.5ft 8s 5s 9 11 mph 1016.2mb 86f 83f
4:50am 2.5ft 9s 5s 9 11 mph 1016.1mb 86f 84f
3:50am 2ft 8s 4s 13 16 mph 1016.3mb 86f 83f
2:50am 2.5ft 9s 5s 11 13 mph 1016.4mb 86f 84f
1:50am 2ft 10s 5s 11 13 mph 1016.9mb 86f 85f
12:50am 2ft 10s 5s 13 16 mph 1017.2mb 86f 85f
Fri 07/22 11:50pm 2.5ft 9s 5s 13 16 mph 1017.2mb 86f 85f
10:50pm 2.5ft 9s 5s 13 16 mph 1017.4mb 87f 85f
9:50pm 2.5ft 9s 6s 13 16 mph 1017.2mb 87f 85f
8:50pm 2ft 8s 6s 13 16 mph 1016.8mb 87f 85f
7:50pm 2.5ft 8s 7s 11 13 mph 1016.4mb 88f 85f
6:50pm 2.5ft 8s 7s 9 11 mph 1016.8mb 88f 85f
5:50pm 2ft 9s 7s 9 11 mph 1016.8mb 89f 85f
4:50pm 2.5ft 9s 7s 7 9 mph 1017.5mb 89f 85f
3:50pm 2.5ft 9s 8s 7 9 mph 1018mb 89f 85f
1:50pm 2.5ft 10s 7s  -  2 mph 1019.5mb 88f 85f
12:50pm 2.5ft 10s 8s 2 4 mph 1019.9mb 87f 85f
11:50am 2.5ft 10s 7s 4 7 mph 1019.9mb 86f 83f
10:50am 2.5ft 9s 7s 4
mph
1019.8mb 86f 82f
9:50am 2.5ft 9s 6s 7 9 mph 1019.7mb 86f 78f
8:50am 2.5ft 9s 6s 20 29 mph 1019.4mb 86f 79f
7:50am 2.5ft 8s 6s 2 4 mph 1019mb 87f 85f
6:50am 2.5ft 8s 7s 4 7 mph 1018.9mb 87f 84f
5:50am 2.5ft 9s 7s  -  2 mph 1018.8mb 87f 85f
4:50am 2.5ft 8s 7s 2 4 mph 1018.6mb 87f 84f